<?xml version="1.0" encoding="UTF-8" standalone="no" ?>
<gpx xmlns="http://www.topografix.com/GPX/1/1" xmlns:xsi="http://www.w3.org/2001/XMLSchema-instance" xsi:schemaLocation="http://www.topografix.com/GPX/1/1 http://www.topografix.com/GPX/1/1/gpx.xsd" version="1.1" creator="VisuGPX - https://www.visugpx.com">
  <metadata>
    <name>Sortie 29-12-2014 VTT après-midi</name>
    <desc><![CDATA[Sortie 29-12-2014 VTT après-midi]]></desc>
  </metadata>
  <trk>
    <name><![CDATA[2014-12-29 14:54:03]]></name>
    <trkseg>
      <trkpt lat="50.33954" lon="4.28707">
        <ele>168.77</ele>
        <time>2014-12-29T12:45:02Z</time>
      </trkpt>
      <trkpt lat="50.33955" lon="4.28708">
        <ele>168.77</ele>
        <time>2014-12-29T12:45:03Z</time>
      </trkpt>
      <trkpt lat="50.33954" lon="4.28709">
        <ele>168.76</ele>
        <time>2014-12-29T12:45:07Z</time>
      </trkpt>
      <trkpt lat="50.3395" lon="4.28721">
        <ele>168.76</ele>
        <time>2014-12-29T12:45:11Z</time>
      </trkpt>
      <trkpt lat="50.33948" lon="4.28725">
        <ele>168.75</ele>
        <time>2014-12-29T12:45:12Z</time>
      </trkpt>
      <trkpt lat="50.33946" lon="4.2873">
        <ele>168.69</ele>
        <time>2014-12-29T12:45:13Z</time>
      </trkpt>
      <trkpt lat="50.33944" lon="4.28735">
        <ele>168.65</ele>
        <time>2014-12-29T12:45:14Z</time>
      </trkpt>
      <trkpt lat="50.33941" lon="4.28741">
        <ele>168.6</ele>
        <time>2014-12-29T12:45:15Z</time>
      </trkpt>
      <trkpt lat="50.33924" lon="4.28785">
        <ele>167.84</ele>
        <time>2014-12-29T12:45:23Z</time>
      </trkpt>
      <trkpt lat="50.33922" lon="4.28791">
        <ele>167.84</ele>
        <time>2014-12-29T12:45:24Z</time>
      </trkpt>
      <trkpt lat="50.3392" lon="4.28798">
        <ele>167.86</ele>
        <time>2014-12-29T12:45:25Z</time>
      </trkpt>
      <trkpt lat="50.33902" lon="4.28864">
        <ele>169.1</ele>
        <time>2014-12-29T12:45:33Z</time>
      </trkpt>
      <trkpt lat="50.33901" lon="4.28872">
        <ele>169.36</ele>
        <time>2014-12-29T12:45:34Z</time>
      </trkpt>
      <trkpt lat="50.33901" lon="4.28881">
        <ele>169.61</ele>
        <time>2014-12-29T12:45:35Z</time>
      </trkpt>
      <trkpt lat="50.33901" lon="4.28889">
        <ele>169.87</ele>
        <time>2014-12-29T12:45:36Z</time>
      </trkpt>
      <trkpt lat="50.33901" lon="4.28898">
        <ele>170.16</ele>
        <time>2014-12-29T12:45:37Z</time>
      </trkpt>
      <trkpt lat="50.33896" lon="4.28963">
        <ele>173.2</ele>
        <time>2014-12-29T12:45:46Z</time>
      </trkpt>
      <trkpt lat="50.33882" lon="4.29074">
        <ele>175.52</ele>
        <time>2014-12-29T12:46:02Z</time>
      </trkpt>
      <trkpt lat="50.33866" lon="4.29139">
        <ele>177.45</ele>
        <time>2014-12-29T12:46:11Z</time>
      </trkpt>
      <trkpt lat="50.33858" lon="4.29165">
        <ele>178.28</ele>
        <time>2014-12-29T12:46:15Z</time>
      </trkpt>
      <trkpt lat="50.33857" lon="4.29171">
        <ele>178.44</ele>
        <time>2014-12-29T12:46:16Z</time>
      </trkpt>
      <trkpt lat="50.33859" lon="4.29175">
        <ele>178.62</ele>
        <time>2014-12-29T12:46:17Z</time>
      </trkpt>
      <trkpt lat="50.33861" lon="4.29178">
        <ele>178.79</ele>
        <time>2014-12-29T12:46:18Z</time>
      </trkpt>
      <trkpt lat="50.33864" lon="4.29181">
        <ele>178.94</ele>
        <time>2014-12-29T12:46:19Z</time>
      </trkpt>
      <trkpt lat="50.33867" lon="4.29184">
        <ele>179.11</ele>
        <time>2014-12-29T12:46:20Z</time>
      </trkpt>
      <trkpt lat="50.33869" lon="4.29185">
        <ele>179.29</ele>
        <time>2014-12-29T12:46:21Z</time>
      </trkpt>
      <trkpt lat="50.33871" lon="4.29186">
        <ele>179.49</ele>
        <time>2014-12-29T12:46:22Z</time>
      </trkpt>
      <trkpt lat="50.33873" lon="4.29188">
        <ele>179.68</ele>
        <time>2014-12-29T12:46:23Z</time>
      </trkpt>
      <trkpt lat="50.33906" lon="4.29202">
        <ele>181.51</ele>
        <time>2014-12-29T12:46:37Z</time>
      </trkpt>
      <trkpt lat="50.33945" lon="4.29208">
        <ele>182.54</ele>
        <time>2014-12-29T12:46:50Z</time>
      </trkpt>
      <trkpt lat="50.33999" lon="4.29206">
        <ele>181.4</ele>
        <time>2014-12-29T12:47:06Z</time>
      </trkpt>
      <trkpt lat="50.34026" lon="4.29226">
        <ele>180.92</ele>
        <time>2014-12-29T12:47:16Z</time>
      </trkpt>
      <trkpt lat="50.34027" lon="4.29278">
        <ele>182.2</ele>
        <time>2014-12-29T12:47:30Z</time>
      </trkpt>
      <trkpt lat="50.34026" lon="4.29321">
        <ele>183.46</ele>
        <time>2014-12-29T12:47:43Z</time>
      </trkpt>
      <trkpt lat="50.34031" lon="4.29369">
        <ele>184.56</ele>
        <time>2014-12-29T12:47:57Z</time>
      </trkpt>
      <trkpt lat="50.34029" lon="4.29436">
        <ele>185.72</ele>
        <time>2014-12-29T12:48:13Z</time>
      </trkpt>
      <trkpt lat="50.3402" lon="4.29534">
        <ele>187.52</ele>
        <time>2014-12-29T12:48:32Z</time>
      </trkpt>
      <trkpt lat="50.34005" lon="4.2966">
        <ele>187.84</ele>
        <time>2014-12-29T12:48:53Z</time>
      </trkpt>
      <trkpt lat="50.33989" lon="4.29793">
        <ele>188.17</ele>
        <time>2014-12-29T12:49:12Z</time>
      </trkpt>
      <trkpt lat="50.33977" lon="4.29909">
        <ele>189.22</ele>
        <time>2014-12-29T12:49:30Z</time>
      </trkpt>
      <trkpt lat="50.33964" lon="4.30013">
        <ele>190.38</ele>
        <time>2014-12-29T12:49:45Z</time>
      </trkpt>
      <trkpt lat="50.33963" lon="4.3002">
        <ele>190.47</ele>
        <time>2014-12-29T12:49:46Z</time>
      </trkpt>
      <trkpt lat="50.33944" lon="4.30171">
        <ele>192.54</ele>
        <time>2014-12-29T12:50:07Z</time>
      </trkpt>
      <trkpt lat="50.33939" lon="4.30221">
        <ele>193.39</ele>
        <time>2014-12-29T12:50:14Z</time>
      </trkpt>
      <trkpt lat="50.33921" lon="4.30372">
        <ele>195.8</ele>
        <time>2014-12-29T12:50:35Z</time>
      </trkpt>
      <trkpt lat="50.33914" lon="4.3043">
        <ele>196.36</ele>
        <time>2014-12-29T12:50:43Z</time>
      </trkpt>
      <trkpt lat="50.33905" lon="4.30561">
        <ele>197.29</ele>
        <time>2014-12-29T12:51:00Z</time>
      </trkpt>
      <trkpt lat="50.33908" lon="4.30729">
        <ele>198.23</ele>
        <time>2014-12-29T12:51:21Z</time>
      </trkpt>
      <trkpt lat="50.33911" lon="4.30881">
        <ele>199.92</ele>
        <time>2014-12-29T12:51:40Z</time>
      </trkpt>
      <trkpt lat="50.33915" lon="4.31022">
        <ele>201.61</ele>
        <time>2014-12-29T12:51:58Z</time>
      </trkpt>
      <trkpt lat="50.33918" lon="4.31155">
        <ele>203.25</ele>
        <time>2014-12-29T12:52:15Z</time>
      </trkpt>
      <trkpt lat="50.33917" lon="4.31163">
        <ele>203.39</ele>
        <time>2014-12-29T12:52:16Z</time>
      </trkpt>
      <trkpt lat="50.33917" lon="4.3117">
        <ele>203.53</ele>
        <time>2014-12-29T12:52:17Z</time>
      </trkpt>
      <trkpt lat="50.33926" lon="4.31333">
        <ele>206.21</ele>
        <time>2014-12-29T12:52:38Z</time>
      </trkpt>
      <trkpt lat="50.33958" lon="4.31494">
        <ele>208.62</ele>
        <time>2014-12-29T12:53:00Z</time>
      </trkpt>
      <trkpt lat="50.33987" lon="4.31617">
        <ele>211.05</ele>
        <time>2014-12-29T12:53:18Z</time>
      </trkpt>
      <trkpt lat="50.34005" lon="4.31744">
        <ele>213.29</ele>
        <time>2014-12-29T12:53:36Z</time>
      </trkpt>
      <trkpt lat="50.34003" lon="4.31873">
        <ele>213.77</ele>
        <time>2014-12-29T12:53:50Z</time>
      </trkpt>
      <trkpt lat="50.33998" lon="4.31909">
        <ele>213.59</ele>
        <time>2014-12-29T12:53:54Z</time>
      </trkpt>
      <trkpt lat="50.34" lon="4.31916">
        <ele>213.53</ele>
        <time>2014-12-29T12:53:55Z</time>
      </trkpt>
      <trkpt lat="50.34002" lon="4.3192">
        <ele>213.48</ele>
        <time>2014-12-29T12:53:56Z</time>
      </trkpt>
      <trkpt lat="50.34005" lon="4.31921">
        <ele>213.43</ele>
        <time>2014-12-29T12:53:57Z</time>
      </trkpt>
      <trkpt lat="50.34012" lon="4.31921">
        <ele>213.38</ele>
        <time>2014-12-29T12:54:00Z</time>
      </trkpt>
      <trkpt lat="50.34014" lon="4.31921">
        <ele>213.39</ele>
        <time>2014-12-29T12:54:01Z</time>
      </trkpt>
      <trkpt lat="50.34016" lon="4.31921">
        <ele>213.39</ele>
        <time>2014-12-29T12:54:02Z</time>
      </trkpt>
      <trkpt lat="50.34035" lon="4.31939">
        <ele>213.25</ele>
        <time>2014-12-29T12:54:13Z</time>
      </trkpt>
      <trkpt lat="50.34047" lon="4.31976">
        <ele>213.57</ele>
        <time>2014-12-29T12:54:26Z</time>
      </trkpt>
      <trkpt lat="50.34061" lon="4.32024">
        <ele>213.29</ele>
        <time>2014-12-29T12:54:41Z</time>
      </trkpt>
      <trkpt lat="50.34076" lon="4.32073">
        <ele>212.84</ele>
        <time>2014-12-29T12:54:52Z</time>
      </trkpt>
      <trkpt lat="50.34103" lon="4.32156">
        <ele>212.04</ele>
        <time>2014-12-29T12:55:09Z</time>
      </trkpt>
      <trkpt lat="50.34125" lon="4.32247">
        <ele>211.59</ele>
        <time>2014-12-29T12:55:26Z</time>
      </trkpt>
      <trkpt lat="50.34141" lon="4.32351">
        <ele>211.54</ele>
        <time>2014-12-29T12:55:44Z</time>
      </trkpt>
      <trkpt lat="50.34161" lon="4.32439">
        <ele>211.19</ele>
        <time>2014-12-29T12:56:01Z</time>
      </trkpt>
      <trkpt lat="50.34166" lon="4.32453">
        <ele>211.18</ele>
        <time>2014-12-29T12:56:10Z</time>
      </trkpt>
      <trkpt lat="50.34189" lon="4.32525">
        <ele>211.13</ele>
        <time>2014-12-29T12:56:27Z</time>
      </trkpt>
      <trkpt lat="50.34191" lon="4.32563">
        <ele>211.07</ele>
        <time>2014-12-29T12:56:39Z</time>
      </trkpt>
      <trkpt lat="50.34188" lon="4.32628">
        <ele>211.15</ele>
        <time>2014-12-29T12:56:52Z</time>
      </trkpt>
      <trkpt lat="50.34184" lon="4.32702">
        <ele>211.8</ele>
        <time>2014-12-29T12:57:07Z</time>
      </trkpt>
      <trkpt lat="50.34196" lon="4.32771">
        <ele>212.42</ele>
        <time>2014-12-29T12:57:21Z</time>
      </trkpt>
      <trkpt lat="50.34218" lon="4.32844">
        <ele>212.76</ele>
        <time>2014-12-29T12:57:36Z</time>
      </trkpt>
      <trkpt lat="50.34243" lon="4.32926">
        <ele>214.03</ele>
        <time>2014-12-29T12:57:53Z</time>
      </trkpt>
      <trkpt lat="50.34263" lon="4.32991">
        <ele>214.68</ele>
        <time>2014-12-29T12:58:08Z</time>
      </trkpt>
      <trkpt lat="50.3428" lon="4.33061">
        <ele>215.52</ele>
        <time>2014-12-29T12:58:25Z</time>
      </trkpt>
      <trkpt lat="50.34281" lon="4.33071">
        <ele>215.69</ele>
        <time>2014-12-29T12:58:31Z</time>
      </trkpt>
      <trkpt lat="50.34281" lon="4.3309">
        <ele>215.75</ele>
        <time>2014-12-29T12:58:39Z</time>
      </trkpt>
      <trkpt lat="50.34281" lon="4.33129">
        <ele>215.92</ele>
        <time>2014-12-29T12:58:50Z</time>
      </trkpt>
      <trkpt lat="50.34282" lon="4.33144">
        <ele>216.03</ele>
        <time>2014-12-29T12:59:02Z</time>
      </trkpt>
      <trkpt lat="50.34283" lon="4.33153">
        <ele>215.99</ele>
        <time>2014-12-29T12:59:09Z</time>
      </trkpt>
      <trkpt lat="50.34284" lon="4.33191">
        <ele>215.85</ele>
        <time>2014-12-29T12:59:22Z</time>
      </trkpt>
      <trkpt lat="50.34283" lon="4.33213">
        <ele>215.77</ele>
        <time>2014-12-29T12:59:32Z</time>
      </trkpt>
      <trkpt lat="50.34285" lon="4.33263">
        <ele>215.56</ele>
        <time>2014-12-29T12:59:47Z</time>
      </trkpt>
      <trkpt lat="50.34289" lon="4.33346">
        <ele>215.38</ele>
        <time>2014-12-29T13:00:04Z</time>
      </trkpt>
      <trkpt lat="50.34292" lon="4.33434">
        <ele>214.61</ele>
        <time>2014-12-29T13:00:21Z</time>
      </trkpt>
      <trkpt lat="50.34292" lon="4.33519">
        <ele>214.4</ele>
        <time>2014-12-29T13:00:37Z</time>
      </trkpt>
      <trkpt lat="50.34287" lon="4.3359">
        <ele>214.4</ele>
        <time>2014-12-29T13:00:51Z</time>
      </trkpt>
      <trkpt lat="50.34277" lon="4.33685">
        <ele>214.58</ele>
        <time>2014-12-29T13:01:09Z</time>
      </trkpt>
      <trkpt lat="50.34282" lon="4.33779">
        <ele>215.59</ele>
        <time>2014-12-29T13:01:26Z</time>
      </trkpt>
      <trkpt lat="50.34292" lon="4.33886">
        <ele>216.15</ele>
        <time>2014-12-29T13:01:46Z</time>
      </trkpt>
      <trkpt lat="50.34302" lon="4.3394">
        <ele>216.43</ele>
        <time>2014-12-29T13:01:59Z</time>
      </trkpt>
      <trkpt lat="50.34305" lon="4.33964">
        <ele>216.47</ele>
        <time>2014-12-29T13:02:08Z</time>
      </trkpt>
      <trkpt lat="50.34311" lon="4.33984">
        <ele>216.44</ele>
        <time>2014-12-29T13:02:27Z</time>
      </trkpt>
      <trkpt lat="50.34311" lon="4.33987">
        <ele>216.48</ele>
        <time>2014-12-29T13:02:28Z</time>
      </trkpt>
      <trkpt lat="50.34323" lon="4.34044">
        <ele>216.83</ele>
        <time>2014-12-29T13:02:44Z</time>
      </trkpt>
      <trkpt lat="50.34335" lon="4.34095">
        <ele>217.18</ele>
        <time>2014-12-29T13:02:57Z</time>
      </trkpt>
      <trkpt lat="50.34341" lon="4.3412">
        <ele>216.59</ele>
        <time>2014-12-29T13:03:08Z</time>
      </trkpt>
      <trkpt lat="50.34348" lon="4.34147">
        <ele>216.31</ele>
        <time>2014-12-29T13:03:17Z</time>
      </trkpt>
      <trkpt lat="50.34355" lon="4.34187">
        <ele>215.68</ele>
        <time>2014-12-29T13:03:37Z</time>
      </trkpt>
      <trkpt lat="50.3437" lon="4.34255">
        <ele>214.96</ele>
        <time>2014-12-29T13:03:54Z</time>
      </trkpt>
      <trkpt lat="50.34371" lon="4.34256">
        <ele>215.17</ele>
        <time>2014-12-29T13:03:59Z</time>
      </trkpt>
      <trkpt lat="50.34373" lon="4.34261">
        <ele>215.11</ele>
        <time>2014-12-29T13:04:18Z</time>
      </trkpt>
      <trkpt lat="50.34374" lon="4.34265">
        <ele>214.98</ele>
        <time>2014-12-29T13:04:24Z</time>
      </trkpt>
      <trkpt lat="50.3438" lon="4.3427">
        <ele>214.22</ele>
        <time>2014-12-29T13:08:58Z</time>
      </trkpt>
      <trkpt lat="50.34412" lon="4.34264">
        <ele>213.34</ele>
        <time>2014-12-29T13:09:10Z</time>
      </trkpt>
      <trkpt lat="50.34477" lon="4.34262">
        <ele>211.03</ele>
        <time>2014-12-29T13:09:27Z</time>
      </trkpt>
      <trkpt lat="50.34578" lon="4.3426">
        <ele>209.4</ele>
        <time>2014-12-29T13:09:50Z</time>
      </trkpt>
      <trkpt lat="50.34669" lon="4.34255">
        <ele>208.08</ele>
        <time>2014-12-29T13:10:09Z</time>
      </trkpt>
      <trkpt lat="50.34751" lon="4.34253">
        <ele>205.07</ele>
        <time>2014-12-29T13:10:26Z</time>
      </trkpt>
      <trkpt lat="50.3486" lon="4.34255">
        <ele>202.17</ele>
        <time>2014-12-29T13:10:49Z</time>
      </trkpt>
      <trkpt lat="50.34915" lon="4.34262">
        <ele>200.88</ele>
        <time>2014-12-29T13:11:05Z</time>
      </trkpt>
      <trkpt lat="50.34916" lon="4.34262">
        <ele>200.67</ele>
        <time>2014-12-29T13:11:10Z</time>
      </trkpt>
      <trkpt lat="50.34924" lon="4.34262">
        <ele>200.55</ele>
        <time>2014-12-29T13:11:17Z</time>
      </trkpt>
      <trkpt lat="50.34932" lon="4.34259">
        <ele>200.45</ele>
        <time>2014-12-29T13:11:20Z</time>
      </trkpt>
      <trkpt lat="50.34934" lon="4.3426">
        <ele>200.41</ele>
        <time>2014-12-29T13:11:21Z</time>
      </trkpt>
      <trkpt lat="50.34936" lon="4.34262">
        <ele>200.35</ele>
        <time>2014-12-29T13:11:22Z</time>
      </trkpt>
      <trkpt lat="50.34939" lon="4.34263">
        <ele>200.29</ele>
        <time>2014-12-29T13:11:23Z</time>
      </trkpt>
      <trkpt lat="50.34941" lon="4.34265">
        <ele>200.32</ele>
        <time>2014-12-29T13:11:24Z</time>
      </trkpt>
      <trkpt lat="50.34942" lon="4.34265">
        <ele>200.37</ele>
        <time>2014-12-29T13:11:25Z</time>
      </trkpt>
      <trkpt lat="50.34944" lon="4.34265">
        <ele>200.46</ele>
        <time>2014-12-29T13:11:26Z</time>
      </trkpt>
      <trkpt lat="50.34945" lon="4.34264">
        <ele>200.58</ele>
        <time>2014-12-29T13:11:27Z</time>
      </trkpt>
      <trkpt lat="50.34956" lon="4.3426">
        <ele>200.89</ele>
        <time>2014-12-29T13:11:33Z</time>
      </trkpt>
      <trkpt lat="50.34989" lon="4.34261">
        <ele>199.91</ele>
        <time>2014-12-29T13:11:42Z</time>
      </trkpt>
      <trkpt lat="50.35021" lon="4.34246">
        <ele>198.53</ele>
        <time>2014-12-29T13:11:50Z</time>
      </trkpt>
      <trkpt lat="50.35054" lon="4.34237">
        <ele>197.17</ele>
        <time>2014-12-29T13:11:59Z</time>
      </trkpt>
      <trkpt lat="50.35064" lon="4.34241">
        <ele>196.61</ele>
        <time>2014-12-29T13:12:02Z</time>
      </trkpt>
      <trkpt lat="50.35078" lon="4.3424">
        <ele>196.34</ele>
        <time>2014-12-29T13:12:06Z</time>
      </trkpt>
      <trkpt lat="50.35101" lon="4.34261">
        <ele>196.3</ele>
        <time>2014-12-29T13:12:18Z</time>
      </trkpt>
      <trkpt lat="50.35122" lon="4.34306">
        <ele>198.65</ele>
        <time>2014-12-29T13:12:35Z</time>
      </trkpt>
      <trkpt lat="50.35128" lon="4.34342">
        <ele>199.76</ele>
        <time>2014-12-29T13:12:48Z</time>
      </trkpt>
      <trkpt lat="50.35138" lon="4.34362">
        <ele>200.25</ele>
        <time>2014-12-29T13:13:01Z</time>
      </trkpt>
      <trkpt lat="50.35148" lon="4.34383">
        <ele>200.34</ele>
        <time>2014-12-29T13:14:31Z</time>
      </trkpt>
      <trkpt lat="50.3515" lon="4.34394">
        <ele>200.43</ele>
        <time>2014-12-29T13:14:35Z</time>
      </trkpt>
      <trkpt lat="50.35155" lon="4.34443">
        <ele>201.35</ele>
        <time>2014-12-29T13:14:48Z</time>
      </trkpt>
      <trkpt lat="50.35161" lon="4.345">
        <ele>201.65</ele>
        <time>2014-12-29T13:15:00Z</time>
      </trkpt>
      <trkpt lat="50.35161" lon="4.34505">
        <ele>201.66</ele>
        <time>2014-12-29T13:15:01Z</time>
      </trkpt>
      <trkpt lat="50.35161" lon="4.34512">
        <ele>201.65</ele>
        <time>2014-12-29T13:15:03Z</time>
      </trkpt>
      <trkpt lat="50.35168" lon="4.3458">
        <ele>200.93</ele>
        <time>2014-12-29T13:15:18Z</time>
      </trkpt>
      <trkpt lat="50.35173" lon="4.34631">
        <ele>201.31</ele>
        <time>2014-12-29T13:15:29Z</time>
      </trkpt>
      <trkpt lat="50.35175" lon="4.34682">
        <ele>201.51</ele>
        <time>2014-12-29T13:15:39Z</time>
      </trkpt>
      <trkpt lat="50.35179" lon="4.34754">
        <ele>200.85</ele>
        <time>2014-12-29T13:15:51Z</time>
      </trkpt>
      <trkpt lat="50.35179" lon="4.3482">
        <ele>199.77</ele>
        <time>2014-12-29T13:16:01Z</time>
      </trkpt>
      <trkpt lat="50.35179" lon="4.34884">
        <ele>200.32</ele>
        <time>2014-12-29T13:16:13Z</time>
      </trkpt>
      <trkpt lat="50.3518" lon="4.34953">
        <ele>201.27</ele>
        <time>2014-12-29T13:16:25Z</time>
      </trkpt>
      <trkpt lat="50.35181" lon="4.35007">
        <ele>201.88</ele>
        <time>2014-12-29T13:16:36Z</time>
      </trkpt>
      <trkpt lat="50.35178" lon="4.35083">
        <ele>202.53</ele>
        <time>2014-12-29T13:16:49Z</time>
      </trkpt>
      <trkpt lat="50.3518" lon="4.35149">
        <ele>203.02</ele>
        <time>2014-12-29T13:17:02Z</time>
      </trkpt>
      <trkpt lat="50.35178" lon="4.3522">
        <ele>203.6</ele>
        <time>2014-12-29T13:17:15Z</time>
      </trkpt>
      <trkpt lat="50.3518" lon="4.35315">
        <ele>202.98</ele>
        <time>2014-12-29T13:17:30Z</time>
      </trkpt>
      <trkpt lat="50.35184" lon="4.3539">
        <ele>202</ele>
        <time>2014-12-29T13:17:42Z</time>
      </trkpt>
      <trkpt lat="50.35187" lon="4.35475">
        <ele>204.11</ele>
        <time>2014-12-29T13:17:57Z</time>
      </trkpt>
      <trkpt lat="50.35194" lon="4.35494">
        <ele>205.46</ele>
        <time>2014-12-29T13:18:07Z</time>
      </trkpt>
      <trkpt lat="50.35195" lon="4.35495">
        <ele>205.48</ele>
        <time>2014-12-29T13:18:08Z</time>
      </trkpt>
      <trkpt lat="50.35192" lon="4.35507">
        <ele>205.09</ele>
        <time>2014-12-29T13:18:18Z</time>
      </trkpt>
      <trkpt lat="50.35195" lon="4.35511">
        <ele>204.54</ele>
        <time>2014-12-29T13:19:11Z</time>
      </trkpt>
      <trkpt lat="50.35219" lon="4.3555">
        <ele>204.02</ele>
        <time>2014-12-29T13:19:25Z</time>
      </trkpt>
      <trkpt lat="50.35224" lon="4.35599">
        <ele>203.63</ele>
        <time>2014-12-29T13:19:35Z</time>
      </trkpt>
      <trkpt lat="50.35234" lon="4.35664">
        <ele>204.23</ele>
        <time>2014-12-29T13:19:48Z</time>
      </trkpt>
      <trkpt lat="50.35236" lon="4.35738">
        <ele>204.55</ele>
        <time>2014-12-29T13:20:00Z</time>
      </trkpt>
      <trkpt lat="50.35252" lon="4.35756">
        <ele>204.39</ele>
        <time>2014-12-29T13:20:07Z</time>
      </trkpt>
      <trkpt lat="50.35262" lon="4.35751">
        <ele>203.76</ele>
        <time>2014-12-29T13:20:13Z</time>
      </trkpt>
      <trkpt lat="50.35271" lon="4.35764">
        <ele>202.84</ele>
        <time>2014-12-29T13:20:20Z</time>
      </trkpt>
      <trkpt lat="50.35282" lon="4.35768">
        <ele>202.44</ele>
        <time>2014-12-29T13:20:25Z</time>
      </trkpt>
      <trkpt lat="50.35308" lon="4.3576">
        <ele>199.13</ele>
        <time>2014-12-29T13:20:35Z</time>
      </trkpt>
      <trkpt lat="50.35325" lon="4.35754">
        <ele>196.29</ele>
        <time>2014-12-29T13:20:40Z</time>
      </trkpt>
      <trkpt lat="50.35338" lon="4.35745">
        <ele>193.25</ele>
        <time>2014-12-29T13:20:43Z</time>
      </trkpt>
      <trkpt lat="50.35355" lon="4.35724">
        <ele>190.01</ele>
        <time>2014-12-29T13:20:47Z</time>
      </trkpt>
      <trkpt lat="50.35372" lon="4.35705">
        <ele>187.92</ele>
        <time>2014-12-29T13:20:50Z</time>
      </trkpt>
      <trkpt lat="50.35381" lon="4.35652">
        <ele>184.29</ele>
        <time>2014-12-29T13:20:56Z</time>
      </trkpt>
      <trkpt lat="50.35382" lon="4.35612">
        <ele>182.59</ele>
        <time>2014-12-29T13:21:01Z</time>
      </trkpt>
      <trkpt lat="50.35393" lon="4.35585">
        <ele>181.23</ele>
        <time>2014-12-29T13:21:05Z</time>
      </trkpt>
      <trkpt lat="50.35408" lon="4.35524">
        <ele>177.85</ele>
        <time>2014-12-29T13:21:15Z</time>
      </trkpt>
      <trkpt lat="50.3541" lon="4.35496">
        <ele>176.8</ele>
        <time>2014-12-29T13:21:25Z</time>
      </trkpt>
      <trkpt lat="50.35444" lon="4.3544">
        <ele>175.3</ele>
        <time>2014-12-29T13:21:57Z</time>
      </trkpt>
      <trkpt lat="50.3547" lon="4.35415">
        <ele>172.87</ele>
        <time>2014-12-29T13:22:08Z</time>
      </trkpt>
      <trkpt lat="50.35496" lon="4.35397">
        <ele>170.37</ele>
        <time>2014-12-29T13:22:14Z</time>
      </trkpt>
      <trkpt lat="50.35505" lon="4.35389">
        <ele>169.63</ele>
        <time>2014-12-29T13:22:16Z</time>
      </trkpt>
      <trkpt lat="50.35531" lon="4.35359">
        <ele>166.03</ele>
        <time>2014-12-29T13:22:25Z</time>
      </trkpt>
      <trkpt lat="50.35537" lon="4.35352">
        <ele>165.11</ele>
        <time>2014-12-29T13:22:30Z</time>
      </trkpt>
      <trkpt lat="50.35541" lon="4.35342">
        <ele>164.38</ele>
        <time>2014-12-29T13:22:34Z</time>
      </trkpt>
      <trkpt lat="50.3556" lon="4.3531">
        <ele>161.43</ele>
        <time>2014-12-29T13:22:48Z</time>
      </trkpt>
      <trkpt lat="50.35576" lon="4.35299">
        <ele>159.11</ele>
        <time>2014-12-29T13:23:05Z</time>
      </trkpt>
      <trkpt lat="50.35589" lon="4.35301">
        <ele>157.66</ele>
        <time>2014-12-29T13:23:13Z</time>
      </trkpt>
      <trkpt lat="50.35594" lon="4.35293">
        <ele>157.25</ele>
        <time>2014-12-29T13:23:17Z</time>
      </trkpt>
      <trkpt lat="50.35613" lon="4.35262">
        <ele>156.21</ele>
        <time>2014-12-29T13:23:30Z</time>
      </trkpt>
      <trkpt lat="50.35625" lon="4.35208">
        <ele>155.91</ele>
        <time>2014-12-29T13:23:43Z</time>
      </trkpt>
      <trkpt lat="50.35627" lon="4.35203">
        <ele>155.75</ele>
        <time>2014-12-29T13:23:44Z</time>
      </trkpt>
      <trkpt lat="50.35647" lon="4.35155">
        <ele>153.34</ele>
        <time>2014-12-29T13:23:59Z</time>
      </trkpt>
      <trkpt lat="50.35656" lon="4.35105">
        <ele>151.15</ele>
        <time>2014-12-29T13:24:11Z</time>
      </trkpt>
      <trkpt lat="50.35666" lon="4.35059">
        <ele>149.35</ele>
        <time>2014-12-29T13:24:22Z</time>
      </trkpt>
      <trkpt lat="50.35672" lon="4.35014">
        <ele>147.14</ele>
        <time>2014-12-29T13:24:30Z</time>
      </trkpt>
      <trkpt lat="50.35688" lon="4.34948">
        <ele>143.78</ele>
        <time>2014-12-29T13:24:40Z</time>
      </trkpt>
      <trkpt lat="50.3571" lon="4.34881">
        <ele>141.3</ele>
        <time>2014-12-29T13:24:52Z</time>
      </trkpt>
      <trkpt lat="50.35712" lon="4.34876">
        <ele>141.08</ele>
        <time>2014-12-29T13:24:53Z</time>
      </trkpt>
      <trkpt lat="50.35727" lon="4.34847">
        <ele>139.27</ele>
        <time>2014-12-29T13:25:00Z</time>
      </trkpt>
      <trkpt lat="50.35736" lon="4.34842">
        <ele>138.41</ele>
        <time>2014-12-29T13:25:05Z</time>
      </trkpt>
      <trkpt lat="50.35747" lon="4.34824">
        <ele>137.61</ele>
        <time>2014-12-29T13:25:25Z</time>
      </trkpt>
      <trkpt lat="50.35757" lon="4.34819">
        <ele>137.78</ele>
        <time>2014-12-29T13:25:40Z</time>
      </trkpt>
      <trkpt lat="50.35736" lon="4.34789">
        <ele>137.9</ele>
        <time>2014-12-29T13:30:05Z</time>
      </trkpt>
      <trkpt lat="50.35737" lon="4.34784">
        <ele>137.9</ele>
        <time>2014-12-29T13:30:07Z</time>
      </trkpt>
      <trkpt lat="50.35739" lon="4.34777">
        <ele>137.87</ele>
        <time>2014-12-29T13:30:10Z</time>
      </trkpt>
      <trkpt lat="50.35721" lon="4.34726">
        <ele>138.87</ele>
        <time>2014-12-29T13:30:25Z</time>
      </trkpt>
      <trkpt lat="50.35719" lon="4.34718">
        <ele>139.07</ele>
        <time>2014-12-29T13:30:27Z</time>
      </trkpt>
      <trkpt lat="50.35718" lon="4.34695">
        <ele>139.27</ele>
        <time>2014-12-29T13:30:33Z</time>
      </trkpt>
      <trkpt lat="50.35708" lon="4.34632">
        <ele>139.06</ele>
        <time>2014-12-29T13:30:45Z</time>
      </trkpt>
      <trkpt lat="50.35691" lon="4.34567">
        <ele>138.18</ele>
        <time>2014-12-29T13:30:57Z</time>
      </trkpt>
      <trkpt lat="50.35673" lon="4.34518">
        <ele>137.89</ele>
        <time>2014-12-29T13:31:09Z</time>
      </trkpt>
      <trkpt lat="50.35658" lon="4.34475">
        <ele>137.42</ele>
        <time>2014-12-29T13:31:19Z</time>
      </trkpt>
      <trkpt lat="50.3564" lon="4.34436">
        <ele>136.69</ele>
        <time>2014-12-29T13:31:27Z</time>
      </trkpt>
      <trkpt lat="50.35645" lon="4.3442">
        <ele>136.09</ele>
        <time>2014-12-29T13:31:32Z</time>
      </trkpt>
      <trkpt lat="50.35694" lon="4.3441">
        <ele>134.97</ele>
        <time>2014-12-29T13:31:46Z</time>
      </trkpt>
      <trkpt lat="50.35739" lon="4.34405">
        <ele>134.16</ele>
        <time>2014-12-29T13:31:59Z</time>
      </trkpt>
      <trkpt lat="50.35761" lon="4.34373">
        <ele>133.97</ele>
        <time>2014-12-29T13:32:06Z</time>
      </trkpt>
      <trkpt lat="50.35826" lon="4.34288">
        <ele>133.91</ele>
        <time>2014-12-29T13:32:23Z</time>
      </trkpt>
      <trkpt lat="50.3589" lon="4.34234">
        <ele>133.81</ele>
        <time>2014-12-29T13:32:40Z</time>
      </trkpt>
      <trkpt lat="50.35902" lon="4.34225">
        <ele>133.75</ele>
        <time>2014-12-29T13:32:43Z</time>
      </trkpt>
      <trkpt lat="50.35974" lon="4.34169">
        <ele>134.05</ele>
        <time>2014-12-29T13:33:02Z</time>
      </trkpt>
      <trkpt lat="50.36006" lon="4.34141">
        <ele>134.25</ele>
        <time>2014-12-29T13:33:11Z</time>
      </trkpt>
      <trkpt lat="50.36069" lon="4.34055">
        <ele>135.57</ele>
        <time>2014-12-29T13:33:32Z</time>
      </trkpt>
      <trkpt lat="50.36107" lon="4.34005">
        <ele>137.78</ele>
        <time>2014-12-29T13:33:48Z</time>
      </trkpt>
      <trkpt lat="50.3616" lon="4.33972">
        <ele>140.93</ele>
        <time>2014-12-29T13:34:06Z</time>
      </trkpt>
      <trkpt lat="50.36212" lon="4.33944">
        <ele>142.88</ele>
        <time>2014-12-29T13:34:21Z</time>
      </trkpt>
      <trkpt lat="50.36269" lon="4.33914">
        <ele>144.66</ele>
        <time>2014-12-29T13:34:38Z</time>
      </trkpt>
      <trkpt lat="50.36329" lon="4.33892">
        <ele>142.66</ele>
        <time>2014-12-29T13:34:55Z</time>
      </trkpt>
      <trkpt lat="50.36355" lon="4.33878">
        <ele>139.55</ele>
        <time>2014-12-29T13:35:07Z</time>
      </trkpt>
      <trkpt lat="50.36379" lon="4.33854">
        <ele>136.48</ele>
        <time>2014-12-29T13:35:17Z</time>
      </trkpt>
      <trkpt lat="50.36401" lon="4.33803">
        <ele>133.47</ele>
        <time>2014-12-29T13:35:28Z</time>
      </trkpt>
      <trkpt lat="50.36403" lon="4.33778">
        <ele>130.42</ele>
        <time>2014-12-29T13:35:36Z</time>
      </trkpt>
      <trkpt lat="50.36414" lon="4.33733">
        <ele>128.21</ele>
        <time>2014-12-29T13:35:47Z</time>
      </trkpt>
      <trkpt lat="50.36429" lon="4.33694">
        <ele>125.96</ele>
        <time>2014-12-29T13:35:57Z</time>
      </trkpt>
      <trkpt lat="50.36444" lon="4.33671">
        <ele>124.86</ele>
        <time>2014-12-29T13:36:02Z</time>
      </trkpt>
      <trkpt lat="50.36447" lon="4.33667">
        <ele>124.54</ele>
        <time>2014-12-29T13:36:03Z</time>
      </trkpt>
      <trkpt lat="50.36452" lon="4.33663">
        <ele>124.19</ele>
        <time>2014-12-29T13:36:04Z</time>
      </trkpt>
      <trkpt lat="50.36457" lon="4.33661">
        <ele>123.85</ele>
        <time>2014-12-29T13:36:05Z</time>
      </trkpt>
      <trkpt lat="50.36461" lon="4.33659">
        <ele>123.56</ele>
        <time>2014-12-29T13:36:06Z</time>
      </trkpt>
      <trkpt lat="50.36466" lon="4.33658">
        <ele>123.29</ele>
        <time>2014-12-29T13:36:07Z</time>
      </trkpt>
      <trkpt lat="50.36495" lon="4.33651">
        <ele>121.1</ele>
        <time>2014-12-29T13:36:14Z</time>
      </trkpt>
      <trkpt lat="50.36499" lon="4.3365">
        <ele>120.74</ele>
        <time>2014-12-29T13:36:15Z</time>
      </trkpt>
      <trkpt lat="50.36539" lon="4.33637">
        <ele>118.19</ele>
        <time>2014-12-29T13:36:22Z</time>
      </trkpt>
      <trkpt lat="50.36584" lon="4.3362">
        <ele>115.95</ele>
        <time>2014-12-29T13:36:29Z</time>
      </trkpt>
      <trkpt lat="50.36589" lon="4.33617">
        <ele>115.7</ele>
        <time>2014-12-29T13:36:30Z</time>
      </trkpt>
      <trkpt lat="50.36593" lon="4.33617">
        <ele>115.47</ele>
        <time>2014-12-29T13:36:31Z</time>
      </trkpt>
      <trkpt lat="50.36596" lon="4.33616">
        <ele>115.2</ele>
        <time>2014-12-29T13:36:32Z</time>
      </trkpt>
      <trkpt lat="50.36599" lon="4.33615">
        <ele>114.93</ele>
        <time>2014-12-29T13:36:33Z</time>
      </trkpt>
      <trkpt lat="50.36607" lon="4.33607">
        <ele>113.95</ele>
        <time>2014-12-29T13:36:38Z</time>
      </trkpt>
      <trkpt lat="50.36606" lon="4.33564">
        <ele>111.72</ele>
        <time>2014-12-29T13:36:51Z</time>
      </trkpt>
      <trkpt lat="50.36602" lon="4.33527">
        <ele>111.24</ele>
        <time>2014-12-29T13:37:02Z</time>
      </trkpt>
      <trkpt lat="50.36594" lon="4.33458">
        <ele>111.17</ele>
        <time>2014-12-29T13:37:18Z</time>
      </trkpt>
      <trkpt lat="50.36589" lon="4.33399">
        <ele>111.43</ele>
        <time>2014-12-29T13:37:32Z</time>
      </trkpt>
      <trkpt lat="50.36587" lon="4.3335">
        <ele>112.76</ele>
        <time>2014-12-29T13:37:45Z</time>
      </trkpt>
      <trkpt lat="50.36585" lon="4.33344">
        <ele>113.15</ele>
        <time>2014-12-29T13:37:47Z</time>
      </trkpt>
      <trkpt lat="50.36585" lon="4.33341">
        <ele>113.31</ele>
        <time>2014-12-29T13:37:48Z</time>
      </trkpt>
      <trkpt lat="50.36586" lon="4.33337">
        <ele>113.45</ele>
        <time>2014-12-29T13:37:49Z</time>
      </trkpt>
      <trkpt lat="50.36588" lon="4.33336">
        <ele>113.58</ele>
        <time>2014-12-29T13:37:50Z</time>
      </trkpt>
      <trkpt lat="50.36591" lon="4.33336">
        <ele>113.7</ele>
        <time>2014-12-29T13:37:51Z</time>
      </trkpt>
      <trkpt lat="50.36593" lon="4.33337">
        <ele>113.82</ele>
        <time>2014-12-29T13:37:52Z</time>
      </trkpt>
      <trkpt lat="50.36595" lon="4.33337">
        <ele>113.91</ele>
        <time>2014-12-29T13:37:53Z</time>
      </trkpt>
      <trkpt lat="50.36597" lon="4.33338">
        <ele>114.02</ele>
        <time>2014-12-29T13:37:54Z</time>
      </trkpt>
      <trkpt lat="50.36599" lon="4.33339">
        <ele>114.11</ele>
        <time>2014-12-29T13:37:55Z</time>
      </trkpt>
      <trkpt lat="50.36602" lon="4.3334">
        <ele>114.19</ele>
        <time>2014-12-29T13:37:56Z</time>
      </trkpt>
      <trkpt lat="50.3663" lon="4.33326">
        <ele>114.15</ele>
        <time>2014-12-29T13:38:07Z</time>
      </trkpt>
      <trkpt lat="50.36647" lon="4.33258">
        <ele>113.17</ele>
        <time>2014-12-29T13:38:22Z</time>
      </trkpt>
      <trkpt lat="50.36671" lon="4.3326">
        <ele>112.15</ele>
        <time>2014-12-29T13:38:31Z</time>
      </trkpt>
      <trkpt lat="50.3669" lon="4.33312">
        <ele>110.61</ele>
        <time>2014-12-29T13:38:45Z</time>
      </trkpt>
      <trkpt lat="50.36701" lon="4.3338">
        <ele>111.09</ele>
        <time>2014-12-29T13:38:58Z</time>
      </trkpt>
      <trkpt lat="50.36708" lon="4.33474">
        <ele>111.25</ele>
        <time>2014-12-29T13:39:14Z</time>
      </trkpt>
      <trkpt lat="50.3672" lon="4.33555">
        <ele>111.1</ele>
        <time>2014-12-29T13:39:29Z</time>
      </trkpt>
      <trkpt lat="50.36723" lon="4.33556">
        <ele>111.07</ele>
        <time>2014-12-29T13:39:30Z</time>
      </trkpt>
      <trkpt lat="50.36726" lon="4.33557">
        <ele>111.05</ele>
        <time>2014-12-29T13:39:31Z</time>
      </trkpt>
      <trkpt lat="50.3673" lon="4.33557">
        <ele>111.02</ele>
        <time>2014-12-29T13:39:32Z</time>
      </trkpt>
      <trkpt lat="50.36732" lon="4.33557">
        <ele>111</ele>
        <time>2014-12-29T13:39:33Z</time>
      </trkpt>
      <trkpt lat="50.36735" lon="4.33557">
        <ele>110.98</ele>
        <time>2014-12-29T13:39:34Z</time>
      </trkpt>
      <trkpt lat="50.36737" lon="4.33556">
        <ele>110.96</ele>
        <time>2014-12-29T13:39:35Z</time>
      </trkpt>
      <trkpt lat="50.36743" lon="4.33557">
        <ele>110.92</ele>
        <time>2014-12-29T13:39:38Z</time>
      </trkpt>
      <trkpt lat="50.36745" lon="4.3356">
        <ele>110.9</ele>
        <time>2014-12-29T13:39:39Z</time>
      </trkpt>
      <trkpt lat="50.36749" lon="4.33579">
        <ele>110.26</ele>
        <time>2014-12-29T13:39:49Z</time>
      </trkpt>
      <trkpt lat="50.36755" lon="4.33579">
        <ele>110.3</ele>
        <time>2014-12-29T13:40:02Z</time>
      </trkpt>
      <trkpt lat="50.36756" lon="4.33579">
        <ele>110.33</ele>
        <time>2014-12-29T13:40:03Z</time>
      </trkpt>
      <trkpt lat="50.36789" lon="4.33578">
        <ele>110.98</ele>
        <time>2014-12-29T13:40:18Z</time>
      </trkpt>
      <trkpt lat="50.36831" lon="4.33561">
        <ele>111.61</ele>
        <time>2014-12-29T13:40:31Z</time>
      </trkpt>
      <trkpt lat="50.3687" lon="4.33529">
        <ele>113.4</ele>
        <time>2014-12-29T13:40:45Z</time>
      </trkpt>
      <trkpt lat="50.36922" lon="4.33488">
        <ele>116.36</ele>
        <time>2014-12-29T13:41:04Z</time>
      </trkpt>
      <trkpt lat="50.36959" lon="4.3349">
        <ele>118.54</ele>
        <time>2014-12-29T13:41:17Z</time>
      </trkpt>
      <trkpt lat="50.37008" lon="4.33521">
        <ele>119.35</ele>
        <time>2014-12-29T13:41:32Z</time>
      </trkpt>
      <trkpt lat="50.37064" lon="4.33555">
        <ele>118.94</ele>
        <time>2014-12-29T13:41:46Z</time>
      </trkpt>
      <trkpt lat="50.37148" lon="4.33604">
        <ele>117.17</ele>
        <time>2014-12-29T13:42:03Z</time>
      </trkpt>
      <trkpt lat="50.37224" lon="4.33648">
        <ele>114.17</ele>
        <time>2014-12-29T13:42:16Z</time>
      </trkpt>
      <trkpt lat="50.37278" lon="4.33674">
        <ele>111.61</ele>
        <time>2014-12-29T13:42:24Z</time>
      </trkpt>
      <trkpt lat="50.37318" lon="4.33669">
        <ele>110.57</ele>
        <time>2014-12-29T13:42:31Z</time>
      </trkpt>
      <trkpt lat="50.37324" lon="4.3367">
        <ele>110.51</ele>
        <time>2014-12-29T13:42:32Z</time>
      </trkpt>
      <trkpt lat="50.37329" lon="4.3367">
        <ele>110.46</ele>
        <time>2014-12-29T13:42:33Z</time>
      </trkpt>
      <trkpt lat="50.37368" lon="4.33676">
        <ele>110.1</ele>
        <time>2014-12-29T13:42:40Z</time>
      </trkpt>
      <trkpt lat="50.3739" lon="4.33676">
        <ele>110</ele>
        <time>2014-12-29T13:42:44Z</time>
      </trkpt>
      <trkpt lat="50.37395" lon="4.33678">
        <ele>110</ele>
        <time>2014-12-29T13:42:45Z</time>
      </trkpt>
      <trkpt lat="50.374" lon="4.33682">
        <ele>110.02</ele>
        <time>2014-12-29T13:42:46Z</time>
      </trkpt>
      <trkpt lat="50.37405" lon="4.33687">
        <ele>110.05</ele>
        <time>2014-12-29T13:42:47Z</time>
      </trkpt>
      <trkpt lat="50.37409" lon="4.33691">
        <ele>110.07</ele>
        <time>2014-12-29T13:42:48Z</time>
      </trkpt>
      <trkpt lat="50.37413" lon="4.33696">
        <ele>110.07</ele>
        <time>2014-12-29T13:42:49Z</time>
      </trkpt>
      <trkpt lat="50.37476" lon="4.3376">
        <ele>109.62</ele>
        <time>2014-12-29T13:43:03Z</time>
      </trkpt>
      <trkpt lat="50.37488" lon="4.33775">
        <ele>109.56</ele>
        <time>2014-12-29T13:43:06Z</time>
      </trkpt>
      <trkpt lat="50.37514" lon="4.33816">
        <ele>109.43</ele>
        <time>2014-12-29T13:43:13Z</time>
      </trkpt>
      <trkpt lat="50.37529" lon="4.33842">
        <ele>109.43</ele>
        <time>2014-12-29T13:43:17Z</time>
      </trkpt>
      <trkpt lat="50.37531" lon="4.33849">
        <ele>109.43</ele>
        <time>2014-12-29T13:43:18Z</time>
      </trkpt>
      <trkpt lat="50.37534" lon="4.33857">
        <ele>109.44</ele>
        <time>2014-12-29T13:43:19Z</time>
      </trkpt>
      <trkpt lat="50.37548" lon="4.33917">
        <ele>109.49</ele>
        <time>2014-12-29T13:43:27Z</time>
      </trkpt>
      <trkpt lat="50.37562" lon="4.33994">
        <ele>109.38</ele>
        <time>2014-12-29T13:43:37Z</time>
      </trkpt>
      <trkpt lat="50.37576" lon="4.34115">
        <ele>108.96</ele>
        <time>2014-12-29T13:43:52Z</time>
      </trkpt>
      <trkpt lat="50.37577" lon="4.34169">
        <ele>108.8</ele>
        <time>2014-12-29T13:43:59Z</time>
      </trkpt>
      <trkpt lat="50.37577" lon="4.34178">
        <ele>108.75</ele>
        <time>2014-12-29T13:44:00Z</time>
      </trkpt>
      <trkpt lat="50.37577" lon="4.34211">
        <ele>108.78</ele>
        <time>2014-12-29T13:44:04Z</time>
      </trkpt>
      <trkpt lat="50.37578" lon="4.34219">
        <ele>108.83</ele>
        <time>2014-12-29T13:44:05Z</time>
      </trkpt>
      <trkpt lat="50.37577" lon="4.34228">
        <ele>108.87</ele>
        <time>2014-12-29T13:44:06Z</time>
      </trkpt>
      <trkpt lat="50.37575" lon="4.34261">
        <ele>108.96</ele>
        <time>2014-12-29T13:44:10Z</time>
      </trkpt>
      <trkpt lat="50.37575" lon="4.34285">
        <ele>108.8</ele>
        <time>2014-12-29T13:44:13Z</time>
      </trkpt>
      <trkpt lat="50.37571" lon="4.34397">
        <ele>109.09</ele>
        <time>2014-12-29T13:44:27Z</time>
      </trkpt>
      <trkpt lat="50.37571" lon="4.34428">
        <ele>109.22</ele>
        <time>2014-12-29T13:44:31Z</time>
      </trkpt>
      <trkpt lat="50.37571" lon="4.34436">
        <ele>109.29</ele>
        <time>2014-12-29T13:44:32Z</time>
      </trkpt>
      <trkpt lat="50.37577" lon="4.34496">
        <ele>109.66</ele>
        <time>2014-12-29T13:44:40Z</time>
      </trkpt>
      <trkpt lat="50.3758" lon="4.34535">
        <ele>110.07</ele>
        <time>2014-12-29T13:44:46Z</time>
      </trkpt>
      <trkpt lat="50.3758" lon="4.34542">
        <ele>110.14</ele>
        <time>2014-12-29T13:44:47Z</time>
      </trkpt>
      <trkpt lat="50.37578" lon="4.34561">
        <ele>110.29</ele>
        <time>2014-12-29T13:44:50Z</time>
      </trkpt>
      <trkpt lat="50.37577" lon="4.34568">
        <ele>110.26</ele>
        <time>2014-12-29T13:44:51Z</time>
      </trkpt>
      <trkpt lat="50.37574" lon="4.34583">
        <ele>110.09</ele>
        <time>2014-12-29T13:44:53Z</time>
      </trkpt>
      <trkpt lat="50.37573" lon="4.3459">
        <ele>109.99</ele>
        <time>2014-12-29T13:44:54Z</time>
      </trkpt>
      <trkpt lat="50.37574" lon="4.34598">
        <ele>109.88</ele>
        <time>2014-12-29T13:44:55Z</time>
      </trkpt>
      <trkpt lat="50.37576" lon="4.34605">
        <ele>109.77</ele>
        <time>2014-12-29T13:44:56Z</time>
      </trkpt>
      <trkpt lat="50.37577" lon="4.34613">
        <ele>109.66</ele>
        <time>2014-12-29T13:44:57Z</time>
      </trkpt>
      <trkpt lat="50.376" lon="4.34733">
        <ele>108.63</ele>
        <time>2014-12-29T13:45:13Z</time>
      </trkpt>
      <trkpt lat="50.37628" lon="4.34831">
        <ele>108.68</ele>
        <time>2014-12-29T13:45:26Z</time>
      </trkpt>
      <trkpt lat="50.37635" lon="4.3486">
        <ele>109.11</ele>
        <time>2014-12-29T13:45:30Z</time>
      </trkpt>
      <trkpt lat="50.37637" lon="4.34868">
        <ele>109.22</ele>
        <time>2014-12-29T13:45:31Z</time>
      </trkpt>
      <trkpt lat="50.37653" lon="4.34918">
        <ele>109.8</ele>
        <time>2014-12-29T13:45:38Z</time>
      </trkpt>
      <trkpt lat="50.37672" lon="4.34956">
        <ele>111.11</ele>
        <time>2014-12-29T13:45:44Z</time>
      </trkpt>
      <trkpt lat="50.37676" lon="4.34961">
        <ele>111.34</ele>
        <time>2014-12-29T13:45:45Z</time>
      </trkpt>
      <trkpt lat="50.37685" lon="4.34971">
        <ele>111.96</ele>
        <time>2014-12-29T13:45:47Z</time>
      </trkpt>
      <trkpt lat="50.37688" lon="4.34978">
        <ele>112.35</ele>
        <time>2014-12-29T13:45:48Z</time>
      </trkpt>
      <trkpt lat="50.37694" lon="4.34993">
        <ele>113.14</ele>
        <time>2014-12-29T13:45:50Z</time>
      </trkpt>
      <trkpt lat="50.37722" lon="4.35104">
        <ele>115.98</ele>
        <time>2014-12-29T13:46:03Z</time>
      </trkpt>
      <trkpt lat="50.37746" lon="4.35171">
        <ele>116.82</ele>
        <time>2014-12-29T13:46:13Z</time>
      </trkpt>
      <trkpt lat="50.37764" lon="4.35198">
        <ele>117.67</ele>
        <time>2014-12-29T13:46:19Z</time>
      </trkpt>
      <trkpt lat="50.37785" lon="4.35216">
        <ele>118.69</ele>
        <time>2014-12-29T13:46:25Z</time>
      </trkpt>
      <trkpt lat="50.37788" lon="4.35218">
        <ele>118.85</ele>
        <time>2014-12-29T13:46:26Z</time>
      </trkpt>
      <trkpt lat="50.37801" lon="4.35221">
        <ele>119.89</ele>
        <time>2014-12-29T13:46:31Z</time>
      </trkpt>
      <trkpt lat="50.37804" lon="4.35218">
        <ele>120.41</ele>
        <time>2014-12-29T13:46:32Z</time>
      </trkpt>
      <trkpt lat="50.37806" lon="4.35216">
        <ele>120.63</ele>
        <time>2014-12-29T13:46:33Z</time>
      </trkpt>
      <trkpt lat="50.37808" lon="4.35212">
        <ele>120.84</ele>
        <time>2014-12-29T13:46:34Z</time>
      </trkpt>
      <trkpt lat="50.3781" lon="4.35209">
        <ele>121.02</ele>
        <time>2014-12-29T13:46:35Z</time>
      </trkpt>
      <trkpt lat="50.37812" lon="4.35205">
        <ele>121.22</ele>
        <time>2014-12-29T13:46:36Z</time>
      </trkpt>
      <trkpt lat="50.37814" lon="4.35201">
        <ele>121.43</ele>
        <time>2014-12-29T13:46:37Z</time>
      </trkpt>
      <trkpt lat="50.37816" lon="4.35196">
        <ele>121.64</ele>
        <time>2014-12-29T13:46:38Z</time>
      </trkpt>
      <trkpt lat="50.37848" lon="4.35134">
        <ele>122.3</ele>
        <time>2014-12-29T13:46:52Z</time>
      </trkpt>
      <trkpt lat="50.37902" lon="4.35095">
        <ele>124.88</ele>
        <time>2014-12-29T13:47:08Z</time>
      </trkpt>
      <trkpt lat="50.3794" lon="4.35094">
        <ele>126.25</ele>
        <time>2014-12-29T13:47:18Z</time>
      </trkpt>
      <trkpt lat="50.37995" lon="4.35068">
        <ele>127.33</ele>
        <time>2014-12-29T13:47:33Z</time>
      </trkpt>
      <trkpt lat="50.38052" lon="4.34998">
        <ele>127.55</ele>
        <time>2014-12-29T13:47:49Z</time>
      </trkpt>
      <trkpt lat="50.38081" lon="4.34958">
        <ele>127.09</ele>
        <time>2014-12-29T13:47:57Z</time>
      </trkpt>
      <trkpt lat="50.38138" lon="4.34882">
        <ele>125.98</ele>
        <time>2014-12-29T13:48:12Z</time>
      </trkpt>
      <trkpt lat="50.38178" lon="4.34846">
        <ele>125.6</ele>
        <time>2014-12-29T13:48:21Z</time>
      </trkpt>
      <trkpt lat="50.38182" lon="4.3484">
        <ele>125.55</ele>
        <time>2014-12-29T13:48:22Z</time>
      </trkpt>
      <trkpt lat="50.38187" lon="4.34833">
        <ele>125.51</ele>
        <time>2014-12-29T13:48:23Z</time>
      </trkpt>
      <trkpt lat="50.3819" lon="4.34826">
        <ele>125.47</ele>
        <time>2014-12-29T13:48:24Z</time>
      </trkpt>
      <trkpt lat="50.38193" lon="4.34819">
        <ele>125.45</ele>
        <time>2014-12-29T13:48:25Z</time>
      </trkpt>
      <trkpt lat="50.38246" lon="4.34688">
        <ele>124.33</ele>
        <time>2014-12-29T13:48:43Z</time>
      </trkpt>
      <trkpt lat="50.38272" lon="4.34609">
        <ele>124.25</ele>
        <time>2014-12-29T13:48:54Z</time>
      </trkpt>
      <trkpt lat="50.38283" lon="4.34584">
        <ele>124.34</ele>
        <time>2014-12-29T13:48:58Z</time>
      </trkpt>
      <trkpt lat="50.38286" lon="4.34578">
        <ele>124.35</ele>
        <time>2014-12-29T13:48:59Z</time>
      </trkpt>
      <trkpt lat="50.38327" lon="4.34488">
        <ele>125.16</ele>
        <time>2014-12-29T13:49:13Z</time>
      </trkpt>
      <trkpt lat="50.38377" lon="4.34383">
        <ele>126.83</ele>
        <time>2014-12-29T13:49:29Z</time>
      </trkpt>
      <trkpt lat="50.3838" lon="4.34377">
        <ele>126.91</ele>
        <time>2014-12-29T13:49:30Z</time>
      </trkpt>
      <trkpt lat="50.38436" lon="4.34255">
        <ele>128.46</ele>
        <time>2014-12-29T13:49:48Z</time>
      </trkpt>
      <trkpt lat="50.38481" lon="4.34121">
        <ele>130.43</ele>
        <time>2014-12-29T13:50:06Z</time>
      </trkpt>
      <trkpt lat="50.38527" lon="4.33978">
        <ele>132.78</ele>
        <time>2014-12-29T13:50:25Z</time>
      </trkpt>
      <trkpt lat="50.38587" lon="4.33797">
        <ele>135.18</ele>
        <time>2014-12-29T13:50:48Z</time>
      </trkpt>
      <trkpt lat="50.38613" lon="4.33763">
        <ele>135.58</ele>
        <time>2014-12-29T13:50:54Z</time>
      </trkpt>
      <trkpt lat="50.38617" lon="4.3376">
        <ele>135.69</ele>
        <time>2014-12-29T13:50:55Z</time>
      </trkpt>
      <trkpt lat="50.38673" lon="4.33721">
        <ele>137.4</ele>
        <time>2014-12-29T13:51:09Z</time>
      </trkpt>
      <trkpt lat="50.38676" lon="4.33716">
        <ele>137.59</ele>
        <time>2014-12-29T13:51:10Z</time>
      </trkpt>
      <trkpt lat="50.38678" lon="4.33711">
        <ele>137.65</ele>
        <time>2014-12-29T13:51:11Z</time>
      </trkpt>
      <trkpt lat="50.3868" lon="4.33704">
        <ele>137.7</ele>
        <time>2014-12-29T13:51:12Z</time>
      </trkpt>
      <trkpt lat="50.38682" lon="4.33698">
        <ele>137.73</ele>
        <time>2014-12-29T13:51:13Z</time>
      </trkpt>
      <trkpt lat="50.38683" lon="4.33691">
        <ele>137.76</ele>
        <time>2014-12-29T13:51:14Z</time>
      </trkpt>
      <trkpt lat="50.38691" lon="4.33609">
        <ele>138.33</ele>
        <time>2014-12-29T13:51:25Z</time>
      </trkpt>
      <trkpt lat="50.38699" lon="4.3358">
        <ele>138.49</ele>
        <time>2014-12-29T13:51:29Z</time>
      </trkpt>
      <trkpt lat="50.38701" lon="4.33574">
        <ele>138.55</ele>
        <time>2014-12-29T13:51:30Z</time>
      </trkpt>
      <trkpt lat="50.38704" lon="4.33567">
        <ele>138.62</ele>
        <time>2014-12-29T13:51:31Z</time>
      </trkpt>
      <trkpt lat="50.38707" lon="4.33561">
        <ele>138.68</ele>
        <time>2014-12-29T13:51:32Z</time>
      </trkpt>
      <trkpt lat="50.3871" lon="4.33556">
        <ele>138.76</ele>
        <time>2014-12-29T13:51:33Z</time>
      </trkpt>
      <trkpt lat="50.38714" lon="4.33551">
        <ele>138.83</ele>
        <time>2014-12-29T13:51:34Z</time>
      </trkpt>
      <trkpt lat="50.38717" lon="4.33546">
        <ele>138.98</ele>
        <time>2014-12-29T13:51:35Z</time>
      </trkpt>
      <trkpt lat="50.38721" lon="4.33541">
        <ele>139.08</ele>
        <time>2014-12-29T13:51:36Z</time>
      </trkpt>
      <trkpt lat="50.38725" lon="4.33537">
        <ele>139.18</ele>
        <time>2014-12-29T13:51:37Z</time>
      </trkpt>
      <trkpt lat="50.38729" lon="4.33534">
        <ele>139.27</ele>
        <time>2014-12-29T13:51:38Z</time>
      </trkpt>
      <trkpt lat="50.38734" lon="4.3353">
        <ele>139.35</ele>
        <time>2014-12-29T13:51:39Z</time>
      </trkpt>
      <trkpt lat="50.38738" lon="4.33527">
        <ele>139.42</ele>
        <time>2014-12-29T13:51:40Z</time>
      </trkpt>
      <trkpt lat="50.38747" lon="4.33522">
        <ele>139.56</ele>
        <time>2014-12-29T13:51:42Z</time>
      </trkpt>
      <trkpt lat="50.38751" lon="4.33518">
        <ele>139.65</ele>
        <time>2014-12-29T13:51:43Z</time>
      </trkpt>
      <trkpt lat="50.38754" lon="4.33513">
        <ele>139.74</ele>
        <time>2014-12-29T13:51:44Z</time>
      </trkpt>
      <trkpt lat="50.38757" lon="4.33507">
        <ele>139.86</ele>
        <time>2014-12-29T13:51:45Z</time>
      </trkpt>
      <trkpt lat="50.38758" lon="4.33499">
        <ele>140.02</ele>
        <time>2014-12-29T13:51:46Z</time>
      </trkpt>
      <trkpt lat="50.38759" lon="4.33492">
        <ele>140.22</ele>
        <time>2014-12-29T13:51:47Z</time>
      </trkpt>
      <trkpt lat="50.38759" lon="4.33485">
        <ele>140.39</ele>
        <time>2014-12-29T13:51:48Z</time>
      </trkpt>
      <trkpt lat="50.38758" lon="4.33477">
        <ele>140.55</ele>
        <time>2014-12-29T13:51:49Z</time>
      </trkpt>
      <trkpt lat="50.38759" lon="4.33469">
        <ele>140.69</ele>
        <time>2014-12-29T13:51:50Z</time>
      </trkpt>
      <trkpt lat="50.38759" lon="4.33462">
        <ele>140.83</ele>
        <time>2014-12-29T13:51:51Z</time>
      </trkpt>
      <trkpt lat="50.38761" lon="4.33454">
        <ele>140.98</ele>
        <time>2014-12-29T13:51:52Z</time>
      </trkpt>
      <trkpt lat="50.38762" lon="4.33447">
        <ele>141.14</ele>
        <time>2014-12-29T13:51:53Z</time>
      </trkpt>
      <trkpt lat="50.38793" lon="4.33311">
        <ele>144.28</ele>
        <time>2014-12-29T13:52:12Z</time>
      </trkpt>
      <trkpt lat="50.38802" lon="4.33199">
        <ele>147.41</ele>
        <time>2014-12-29T13:52:27Z</time>
      </trkpt>
      <trkpt lat="50.38795" lon="4.33155">
        <ele>148.05</ele>
        <time>2014-12-29T13:52:33Z</time>
      </trkpt>
      <trkpt lat="50.38793" lon="4.33148">
        <ele>148.09</ele>
        <time>2014-12-29T13:52:34Z</time>
      </trkpt>
      <trkpt lat="50.3876" lon="4.33012">
        <ele>148.77</ele>
        <time>2014-12-29T13:52:53Z</time>
      </trkpt>
      <trkpt lat="50.38728" lon="4.32933">
        <ele>149.41</ele>
        <time>2014-12-29T13:53:06Z</time>
      </trkpt>
      <trkpt lat="50.38722" lon="4.32893">
        <ele>149.65</ele>
        <time>2014-12-29T13:53:11Z</time>
      </trkpt>
      <trkpt lat="50.38721" lon="4.32885">
        <ele>149.7</ele>
        <time>2014-12-29T13:53:12Z</time>
      </trkpt>
      <trkpt lat="50.38719" lon="4.32859">
        <ele>149.75</ele>
        <time>2014-12-29T13:53:15Z</time>
      </trkpt>
      <trkpt lat="50.38711" lon="4.32795">
        <ele>149.25</ele>
        <time>2014-12-29T13:53:23Z</time>
      </trkpt>
      <trkpt lat="50.38713" lon="4.32787">
        <ele>149.21</ele>
        <time>2014-12-29T13:53:24Z</time>
      </trkpt>
      <trkpt lat="50.38715" lon="4.3278">
        <ele>149.16</ele>
        <time>2014-12-29T13:53:25Z</time>
      </trkpt>
      <trkpt lat="50.38717" lon="4.32773">
        <ele>149.16</ele>
        <time>2014-12-29T13:53:26Z</time>
      </trkpt>
      <trkpt lat="50.38721" lon="4.32768">
        <ele>149.16</ele>
        <time>2014-12-29T13:53:27Z</time>
      </trkpt>
      <trkpt lat="50.38724" lon="4.32763">
        <ele>149.16</ele>
        <time>2014-12-29T13:53:28Z</time>
      </trkpt>
      <trkpt lat="50.38728" lon="4.3276">
        <ele>149.16</ele>
        <time>2014-12-29T13:53:29Z</time>
      </trkpt>
      <trkpt lat="50.38732" lon="4.32757">
        <ele>149.2</ele>
        <time>2014-12-29T13:53:30Z</time>
      </trkpt>
      <trkpt lat="50.38783" lon="4.32726">
        <ele>151.23</ele>
        <time>2014-12-29T13:53:43Z</time>
      </trkpt>
      <trkpt lat="50.38804" lon="4.32717">
        <ele>152.41</ele>
        <time>2014-12-29T13:53:49Z</time>
      </trkpt>
      <trkpt lat="50.38807" lon="4.32719">
        <ele>152.62</ele>
        <time>2014-12-29T13:53:50Z</time>
      </trkpt>
      <trkpt lat="50.38808" lon="4.3272">
        <ele>153.3</ele>
        <time>2014-12-29T13:53:54Z</time>
      </trkpt>
    </trkseg>
  </trk>
</gpx>